Time;durP1;ratioP1;P1;durP2;ratioP2;P2;SDS_P1;SDS_P2;PMS_P1;PMS_P2;Temp;Humidity;BMP_temperature;BMP_pressure;BME280_temperature;BME280_humidity;BME280_pressure;Samples;Min_cycle;Max_cycle;Signal;HPM_P1;HPM_P2
2021/12/29 00:00:16;;;;;;;7.13;1.10;;;;;;;8.36;100.00;99997.19;5037689;28;20045;-38
2021/12/29 00:02:44;;;;;;;5.63;1.03;;;;;;;8.35;100.00;100003.06;5049737;28;20139;-36
2021/12/29 00:05:12;;;;;;;7.43;1.10;;;;;;;8.36;100.00;100010.28;5043394;28;20331;-33
2021/12/29 00:07:42;;;;;;;5.70;1.00;;;;;;;8.38;100.00;100014.41;5034529;28;20050;-34
2021/12/29 00:10:12;;;;;;;7.38;1.10;;;;;;;8.38;100.00;100024.69;5039197;28;20056;-38
2021/12/29 00:12:44;;;;;;;7.57;1.20;;;;;;;8.39;100.00;100031.91;5046693;28;20051;-40
2021/12/29 00:15:15;;;;;;;8.88;1.77;;;;;;;8.39;100.00;100035.50;5042512;28;20049;-40
2021/12/29 00:17:44;;;;;;;8.85;1.67;;;;;;;8.39;100.00;100043.84;5037009;28;20045;-40
2021/12/29 00:20:13;;;;;;;11.95;1.38;;;;;;;8.41;100.00;100058.25;5038396;28;20081;-35
2021/12/29 00:22:43;;;;;;;15.27;1.85;;;;;;;8.41;100.00;100061.00;5043846;28;20096;-32
2021/12/29 00:25:11;;;;;;;9.68;1.38;;;;;;;8.42;100.00;100076.56;5042996;28;20049;-34
2021/12/29 00:27:39;;;;;;;14.48;1.70;;;;;;;8.41;100.00;100083.25;5039714;28;20042;-31
2021/12/29 00:30:12;;;;;;;14.18;1.83;;;;;;;8.41;100.00;100093.56;5038724;28;20545;-31
2021/12/29 00:32:55;;;;;;;14.45;1.60;;;;;;;8.39;100.00;100096.66;5043011;28;20049;-36
2021/12/29 00:35:42;;;;;;;11.65;1.67;;;;;;;8.38;100.00;100099.75;5042505;28;20044;-40
2021/12/29 00:38:40;;;;;;;13.75;1.90;;;;;;;8.37;100.00;100104.47;5034798;28;20147;-35
2021/12/29 00:41:28;;;;;;;10.88;1.65;;;;;;;8.35;100.00;100115.06;5011448;28;20306;-35
2021/12/29 00:44:14;;;;;;;11.30;1.70;;;;;;;8.34;100.00;100118.97;5032563;28;20056;-33
2021/12/29 00:47:01;;;;;;;11.85;1.83;;;;;;;8.33;100.00;100142.34;5019880;28;20057;-33
2021/12/29 00:49:33;;;;;;;12.25;2.25;;;;;;;8.33;100.00;100144.28;5031859;28;20149;-34
2021/12/29 00:52:05;;;;;;;7.35;1.40;;;;;;;8.32;100.00;100150.94;5037954;28;20071;-35
2021/12/29 00:54:36;;;;;;;11.80;2.22;;;;;;;8.32;100.00;100157.38;5048890;28;20056;-31
2021/12/29 00:57:04;;;;;;;12.00;2.08;;;;;;;8.33;100.00;100160.97;5037571;28;20042;-36
2021/12/29 00:59:32;;;;;;;10.23;2.00;;;;;;;8.34;100.00;100157.91;5048795;28;20506;-38
2021/12/29 01:02:00;;;;;;;12.52;2.10;;;;;;;8.35;100.00;100172.63;5038079;28;20383;-35
2021/12/29 01:04:27;;;;;;;13.63;1.77;;;;;;;8.34;100.00;100177.34;5046890;28;20057;-37
2021/12/29 01:06:56;;;;;;;12.35;2.00;;;;;;;8.35;100.00;100179.00;5042380;28;20041;-38
2021/12/29 01:09:24;;;;;;;10.20;1.90;;;;;;;8.36;100.00;100180.66;5036500;28;20054;-40
2021/12/29 01:11:55;;;;;;;10.00;2.40;;;;;;;8.37;100.00;100190.66;5038263;28;20457;-39
2021/12/29 01:14:25;;;;;;;13.18;2.17;;;;;;;8.38;100.00;100195.09;5043515;28;20144;-34
2021/12/29 01:16:53;;;;;;;13.10;2.10;;;;;;;8.39;100.00;100207.88;5043157;28;20083;-38
2021/12/29 01:19:24;;;;;;;14.13;2.25;;;;;;;8.39;100.00;100199.53;5023834;28;20057;-35
2021/12/29 01:21:57;;;;;;;17.05;2.78;;;;;;;8.40;100.00;100209.50;5042423;28;20414;-37
2021/12/29 01:24:27;;;;;;;13.07;2.72;;;;;;;8.41;100.00;100215.88;5040358;28;20089;-37
2021/12/29 01:26:57;;;;;;;10.85;2.35;;;;;;;8.40;100.00;100217.81;5044789;28;20513;-37
2021/12/29 01:29:26;;;;;;;19.98;3.90;;;;;;;8.40;100.00;100222.56;5045770;28;20049;-36
2021/12/29 01:31:54;;;;;;;19.90;3.78;;;;;;;8.40;100.00;100222.56;5039083;28;20045;-37
2021/12/29 01:34:22;;;;;;;18.25;3.88;;;;;;;8.39;100.00;100232.88;5043457;28;20063;-35
2021/12/29 01:36:50;;;;;;;13.07;3.03;;;;;;;8.39;100.00;100241.22;5049212;28;20456;-41
2021/12/29 01:39:19;;;;;;;14.45;3.72;;;;;;;8.39;100.00;100232.06;5045750;28;20509;-34
2021/12/29 01:41:50;;;;;;;13.82;3.63;;;;;;;8.38;100.00;100231.22;5037202;28;20099;-37
2021/12/29 01:44:23;;;;;;;13.98;3.58;;;;;;;8.38;100.00;100231.22;5041015;28;20047;-34
2021/12/29 01:46:52;;;;;;;18.23;3.80;;;;;;;8.38;100.00;100236.78;5051872;28;20140;-39
2021/12/29 01:49:20;;;;;;;15.77;3.22;;;;;;;8.38;100.00;100250.69;5046235;28;20045;-38
2021/12/29 01:51:59;;;;;;;14.55;3.28;;;;;;;8.37;100.00;100249.03;5034892;28;20115;-37
2021/12/29 01:54:34;;;;;;;14.32;3.28;;;;;;;8.37;100.00;100251.00;5046540;28;20132;-33
2021/12/29 01:57:04;;;;;;;13.55;3.50;;;;;;;8.36;100.00;100254.91;5035425;28;20045;-37
2021/12/29 01:59:35;;;;;;;14.88;3.30;;;;;;;8.36;100.00;100250.16;5040929;28;20104;-38
2021/12/29 02:02:04;;;;;;;11.65;3.03;;;;;;;8.37;100.00;100248.22;5052130;28;20411;-35
2021/12/29 02:04:32;;;;;;;10.20;3.00;;;;;;;8.35;100.00;100251.28;5046776;28;20083;-38
2021/12/29 02:07:04;;;;;;;18.70;3.95;;;;;;;8.35;100.00;100250.47;5034786;28;20057;-40
2021/12/29 02:09:32;;;;;;;15.77;3.30;;;;;;;8.34;100.00;100260.75;5040380;28;20064;-39
2021/12/29 02:11:59;;;;;;;13.73;3.38;;;;;;;8.34;100.00;100263.53;5051357;28;20526;-34
2021/12/29 02:14:27;;;;;;;12.23;2.75;;;;;;;8.34;100.00;100266.31;5045527;28;20417;-31
2021/12/29 02:16:56;;;;;;;10.65;3.10;;;;;;;8.35;100.00;100265.19;5037326;28;20043;-33
2021/12/29 02:19:25;;;;;;;10.90;2.83;;;;;;;8.35;100.00;100267.97;5041242;28;20048;-43
2021/12/29 02:22:02;;;;;;;13.27;3.00;;;;;;;8.35;100.00;100270.75;5047827;28;20057;-35
2021/12/29 02:24:38;;;;;;;15.25;3.72;;;;;;;8.37;100.00;100274.06;5045273;28;20051;-37
2021/12/29 02:27:07;;;;;;;15.13;3.83;;;;;;;8.35;100.00;100265.19;5038246;28;20081;-37
2021/12/29 02:29:35;;;;;;;15.23;3.45;;;;;;;8.35;100.00;100273.53;5040637;28;20056;-28
2021/12/29 02:32:04;;;;;;;9.00;2.78;;;;;;;8.37;100.00;100281.56;5046796;28;20061;-35
2021/12/29 02:34:33;;;;;;;13.40;4.13;;;;;;;8.37;100.00;100279.63;5044215;28;20049;-35
2021/12/29 02:37:03;;;;;;;15.35;3.92;;;;;;;8.37;100.00;100285.19;5041721;28;20414;-38
2021/12/29 02:39:35;;;;;;;14.60;3.78;;;;;;;8.37;100.00;100276.84;5041088;28;20059;-35
2021/12/29 02:42:06;;;;;;;14.18;3.92;;;;;;;8.37;100.00;100279.63;5043343;28;20045;-35
2021/12/29 02:44:39;;;;;;;15.23;3.25;;;;;;;8.38;100.00;100274.88;5045420;28;20052;-39
2021/12/29 02:47:09;;;;;;;12.75;3.20;;;;;;;8.37;100.00;100276.84;5042299;28;20059;-40
2021/12/29 02:49:38;;;;;;;15.82;3.90;;;;;;;8.38;100.00;100284.06;5045953;28;20505;-41
2021/12/29 02:52:08;;;;;;;14.45;3.58;;;;;;;8.40;100.00;100286.50;5044127;28;20049;-36
2021/12/29 02:54:36;;;;;;;18.50;3.50;;;;;;;8.39;100.00;100282.94;5037287;28;20566;-30
2021/12/29 02:57:04;;;;;;;15.80;3.88;;;;;;;8.39;100.00;100293.22;5041738;28;20049;-40
2021/12/29 02:59:32;;;;;;;16.02;3.88;;;;;;;8.40;100.00;100289.28;5048254;28;20052;-37
2021/12/29 03:02:00;;;;;;;18.88;3.15;;;;;;;8.40;100.00;100289.28;5040167;28;20461;-33
2021/12/29 03:04:28;;;;;;;12.43;2.90;;;;;;;8.39;100.00;100298.78;5049928;28;20103;-34
2021/12/29 03:06:56;;;;;;;17.95;3.25;;;;;;;8.38;100.00;100305.47;5044870;28;20513;-34
2021/12/29 03:09:25;;;;;;;13.77;3.40;;;;;;;8.39;100.00;100319.06;5033954;28;20051;-35
2021/12/29 03:11:53;;;;;;;21.38;3.70;;;;;;;8.39;100.00;100326.59;5039237;28;20045;-38
2021/12/29 03:14:21;;;;;;;19.60;4.50;;;;;;;8.40;100.00;100337.38;5051243;28;20426;-37
2021/12/29 03:16:49;;;;;;;15.15;3.20;;;;;;;8.40;100.00;100334.59;5045385;28;20055;-36
2021/12/29 03:19:17;;;;;;;14.10;3.05;;;;;;;8.41;100.00;100344.59;5034041;28;20038;-35
2021/12/29 03:21:46;;;;;;;20.23;3.90;;;;;;;8.42;100.00;100353.75;5039059;28;20049;-36
2021/12/29 03:24:15;;;;;;;19.50;4.18;;;;;;;8.42;100.00;100350.97;5048750;28;20055;-39
2021/12/29 03:26:44;;;;;;;17.20;3.60;;;;;;;8.42;100.00;100365.72;5043870;28;20048;-31
2021/12/29 03:29:12;;;;;;;9.95;2.90;;;;;;;8.44;100.00;100374.59;5036246;28;20048;-33
2021/12/29 03:31:42;;;;;;;19.23;3.80;;;;;;;8.43;100.00;100372.94;5039699;28;20601;-31
2021/12/29 03:34:10;;;;;;;18.70;3.95;;;;;;;8.45;100.00;100376.25;5045666;28;20403;-38
2021/12/29 03:36:38;;;;;;;19.58;4.35;;;;;;;8.47;100.00;100395.41;5043216;28;20059;-37
2021/12/29 03:39:05;;;;;;;17.63;3.95;;;;;;;8.48;100.00;100385.94;5040632;28;20042;-39
2021/12/29 03:41:33;;;;;;;15.70;4.60;;;;;;;8.48;100.00;100392.34;5039962;28;20517;-38
2021/12/29 03:44:02;;;;;;;13.60;4.00;;;;;;;8.50;100.00;100392.88;5041070;28;20057;-35
2021/12/29 03:46:33;;;;;;;17.23;4.38;;;;;;;8.50;100.00;100392.03;5044823;28;20123;-36
2021/12/29 03:49:01;;;;;;;16.70;5.15;;;;;;;8.50;100.00;100398.44;5042680;28;20041;-34
2021/12/29 03:51:29;;;;;;;13.18;4.55;;;;;;;8.50;100.00;100404.00;5036135;28;20048;-38
2021/12/29 03:53:57;;;;;;;14.23;4.18;;;;;;;8.52;100.00;100412.88;5040538;28;20053;-41
2021/12/29 03:56:25;;;;;;;16.00;3.85;;;;;;;8.53;100.00;100408.97;5047073;28;20053;-29
2021/12/29 03:58:53;;;;;;;10.55;3.28;;;;;;;8.54;100.00;100395.91;5038809;28;20037;-35
2021/12/29 04:01:25;;;;;;;15.82;4.35;;;;;;;8.55;100.00;100400.34;5031137;28;20055;-36
2021/12/29 04:03:53;;;;;;;14.18;3.85;;;;;;;8.56;100.00;100399.22;5044155;28;20490;-34
2021/12/29 04:06:22;;;;;;;13.52;3.63;;;;;;;8.56;100.00;100397.25;5032505;28;20037;-34
2021/12/29 04:08:50;;;;;;;11.80;4.15;;;;;;;8.57;100.00;100396.13;5043825;28;20041;-40
2021/12/29 04:11:20;;;;;;;12.55;3.90;;;;;;;8.57;100.00;100393.34;5032458;28;20132;-34
2021/12/29 04:13:50;;;;;;;8.77;3.22;;;;;;;8.60;100.00;100414.16;5037712;28;20067;-36
2021/12/29 04:16:18;;;;;;;12.65;4.10;;;;;;;8.60;100.00;100414.97;5049894;28;20056;-37
2021/12/29 04:19:06;;;;;;;11.70;4.05;;;;;;;8.61;100.00;100419.41;5037452;28;20473;-36
2021/12/29 04:21:36;;;;;;;11.95;3.65;;;;;;;8.59;100.00;100421.66;5032562;28;20083;-37
2021/12/29 04:24:05;;;;;;;10.80;3.80;;;;;;;8.62;100.00;100425.81;5037790;28;20051;-39
2021/12/29 04:26:36;;;;;;;13.07;4.30;;;;;;;8.62;100.00;100432.19;5049462;28;20115;-35
2021/12/29 04:29:05;;;;;;;14.48;4.00;;;;;;;8.62;100.00;100434.97;5043493;28;20055;-31
2021/12/29 04:31:32;;;;;;;15.07;3.35;;;;;;;8.61;100.00;100438.06;5033844;28;20048;-36
2021/12/29 04:34:03;;;;;;;13.07;2.88;;;;;;;8.61;100.00;100433.31;5038416;28;20041;-38
2021/12/29 04:36:31;;;;;;;9.05;2.65;;;;;;;8.62;100.00;100443.31;5046993;28;20055;-35
2021/12/29 04:38:59;;;;;;;8.48;2.30;;;;;;;8.63;100.00;100449.72;5042619;28;20064;-37
2021/12/29 04:41:28;;;;;;;9.65;1.92;;;;;;;8.63;100.00;100453.31;5036652;28;20049;-33
2021/12/29 04:43:56;;;;;;;12.23;1.65;;;;;;;8.62;100.00;100462.78;5038633;28;20414;-32
2021/12/29 04:46:29;;;;;;;11.38;2.03;;;;;;;8.60;100.00;100459.47;5043014;28;20053;-32
2021/12/29 04:49:01;;;;;;;18.65;2.45;;;;;;;8.59;100.00;100462.59;5042125;28;20052;-30
2021/12/29 04:51:34;;;;;;;14.77;2.13;;;;;;;8.58;100.00;100472.88;5039666;28;20502;-34
2021/12/29 04:54:03;;;;;;;19.55;2.47;;;;;;;8.58;100.00;100466.50;5038524;28;20148;-40
2021/12/29 04:56:31;;;;;;;14.73;2.50;;;;;;;8.57;100.00;100474.00;5040389;28;20057;-37
2021/12/29 04:58:59;;;;;;;11.98;1.95;;;;;;;8.58;100.00;100474.84;5042609;28;20434;-41
2021/12/29 05:01:27;;;;;;;13.70;2.33;;;;;;;8.57;100.00;100478.72;5040971;28;20049;-38
2021/12/29 05:03:55;;;;;;;13.93;2.15;;;;;;;8.56;100.00;100483.47;5036134;28;20051;-34
2021/12/29 05:09:09;;;;;;;9.52;1.40;;;;;;;8.55;100.00;100484.59;5046686;28;20061;-33
2021/12/29 05:11:37;;;;;;;8.07;1.25;;;;;;;8.54;100.00;100491.28;5044495;28;20049;-35
2021/12/29 05:14:05;;;;;;;11.20;1.55;;;;;;;8.55;100.00;100490.16;5037249;28;20053;-34
2021/12/29 05:16:33;;;;;;;12.63;1.80;;;;;;;8.55;100.00;100492.94;5041127;28;20056;-41
2021/12/29 05:19:01;;;;;;;15.18;2.03;;;;;;;8.54;100.00;100501.56;5050231;28;20083;-40
2021/12/29 05:21:28;;;;;;;12.65;1.70;;;;;;;8.53;100.00;100506.28;5045770;28;20049;-33
2021/12/29 05:23:56;;;;;;;12.50;1.50;;;;;;;8.52;100.00;100507.41;5034046;28;20183;-34
2021/12/29 05:26:25;;;;;;;12.75;1.67;;;;;;;8.50;100.00;100515.22;5037555;28;20113;-38
2021/12/29 05:28:53;;;;;;;7.05;1.20;;;;;;;8.50;100.00;100512.44;5033068;28;20053;-32
2021/12/29 05:31:21;;;;;;;8.88;1.05;;;;;;;8.47;100.00;100499.13;5046154;28;20045;-35
2021/12/29 05:33:49;;;;;;;11.07;1.30;;;;;;;8.47;100.00;100521.38;5034591;28;20045;-39
2021/12/29 05:36:16;;;;;;;12.70;1.25;;;;;;;8.46;100.00;100519.72;5039298;28;20049;-38
2021/12/29 05:38:44;;;;;;;8.57;1.23;;;;;;;8.45;100.00;100529.16;5050315;28;20053;-40
2021/12/29 05:41:12;;;;;;;9.48;1.30;;;;;;;8.44;100.00;100532.25;5044176;28;20064;-32
2021/12/29 05:43:41;;;;;;;8.75;1.17;;;;;;;8.43;100.00;100534.19;5037695;28;20056;-36
2021/12/29 05:46:09;;;;;;;10.13;1.17;;;;;;;8.43;100.00;100531.41;5040446;28;20073;-34
2021/12/29 05:48:37;;;;;;;6.82;1.02;;;;;;;8.42;100.00;100531.69;5046423;28;20045;-37
2021/12/29 05:51:05;;;;;;;10.35;1.17;;;;;;;8.42;100.00;100529.75;5043820;28;20056;-35
2021/12/29 05:53:33;;;;;;;9.52;1.45;;;;;;;8.42;100.00;100520.59;5041128;28;20064;-33
2021/12/29 05:56:01;;;;;;;11.95;1.58;;;;;;;8.42;100.00;100521.41;5002300;28;1028109;-36
2021/12/29 05:58:29;;;;;;;11.02;1.38;;;;;;;8.41;100.00;100533.66;5043881;28;20513;-32
2021/12/29 06:00:58;;;;;;;7.60;1.00;;;;;;;8.42;100.00;100532.53;5039927;28;20139;-42
2021/12/29 06:03:26;;;;;;;7.38;1.00;;;;;;;8.42;100.00;100542.81;5042701;28;20399;-38
2021/12/29 06:05:53;;;;;;;11.70;1.40;;;;;;;8.43;100.00;100536.13;5048084;28;20406;-36
2021/12/29 06:08:21;;;;;;;12.52;1.23;;;;;;;8.42;100.00;100543.66;5044980;28;20486;-32
2021/12/29 06:10:49;;;;;;;8.75;1.15;;;;;;;8.42;100.00;100540.88;5036963;28;20041;-33
2021/12/29 06:13:17;;;;;;;10.80;1.52;;;;;;;8.43;100.00;100541.72;5040144;28;20081;-35
2021/12/29 06:15:45;;;;;;;13.88;1.70;;;;;;;8.43;100.00;100556.44;5051580;28;20033;-35
2021/12/29 06:18:14;;;;;;;16.52;1.50;;;;;;;8.44;100.00;100548.94;5045325;28;20521;-36
2021/12/29 06:20:42;;;;;;;15.77;1.80;;;;;;;8.42;100.00;100557.56;5034558;28;20045;-37
2021/12/29 06:23:12;;;;;;;15.35;1.88;;;;;;;8.42;100.00;100548.38;5039341;28;20057;-41
2021/12/29 06:25:40;;;;;;;12.43;1.65;;;;;;;8.42;100.00;100546.44;5034254;28;20053;-33
2021/12/29 06:28:08;;;;;;;14.23;1.88;;;;;;;8.41;100.00;100544.78;5039772;28;20049;-32
2021/12/29 06:30:36;;;;;;;12.13;1.65;;;;;;;8.40;100.00;100545.06;5051210;28;20044;-34
2021/12/29 06:33:04;;;;;;;14.95;1.50;;;;;;;8.41;100.00;100549.50;5024910;28;20473;-31
2021/12/29 06:35:33;;;;;;;18.17;1.88;;;;;;;8.41;100.00;100552.28;5041367;28;20056;-32
2021/12/29 06:38:01;;;;;;;13.57;1.77;;;;;;;8.41;100.00;100555.91;5043373;28;20061;-36
2021/12/29 06:40:29;;;;;;;13.93;2.00;;;;;;;8.41;100.00;100550.34;5037725;28;20064;-35
2021/12/29 06:42:57;;;;;;;11.43;2.05;;;;;;;8.41;100.00;100539.22;5040538;28;20092;-40
2021/12/29 06:45:26;;;;;;;18.52;2.20;;;;;;;8.42;100.00;100545.59;5045419;28;20144;-38
2021/12/29 06:47:55;;;;;;;16.25;2.10;;;;;;;8.42;100.00;100557.56;5043212;28;20049;-36
2021/12/29 06:50:22;;;;;;;17.73;2.53;;;;;;;8.41;100.00;100561.47;5041992;28;20554;-38
2021/12/29 06:52:51;;;;;;;16.23;2.70;;;;;;;8.42;100.00;100554.78;5040517;28;20041;-35
2021/12/29 06:55:19;;;;;;;15.70;1.92;;;;;;;8.41;100.00;100566.19;5043237;28;20064;-38
2021/12/29 06:57:51;;;;;;;11.85;2.72;;;;;;;8.40;100.00;100559.78;5039093;28;20103;-34
2021/12/29 07:00:20;;;;;;;14.00;2.40;;;;;;;8.41;100.00;100560.63;5040969;28;20090;-33
2021/12/29 07:02:47;;;;;;;14.95;2.20;;;;;;;8.42;100.00;100563.13;5045923;28;20057;-34
2021/12/29 07:05:16;;;;;;;14.93;2.20;;;;;;;8.41;100.00;100557.84;5042937;28;20049;-32
2021/12/29 07:07:46;;;;;;;17.42;2.50;;;;;;;8.42;100.00;100567.84;5034823;28;20457;-29
2021/12/29 07:10:15;;;;;;;13.80;2.13;;;;;;;8.42;100.00;100573.41;5038659;28;20572;-36
2021/12/29 07:12:43;;;;;;;11.30;2.08;;;;;;;8.43;100.00;100569.50;5048699;28;20045;-39
2021/12/29 07:15:11;;;;;;;19.88;2.88;;;;;;;8.43;100.00;100564.78;5043585;28;20497;-35
2021/12/29 07:17:39;;;;;;;14.90;2.03;;;;;;;8.43;100.00;100577.84;5032428;28;20135;-34
2021/12/29 07:20:07;;;;;;;14.45;2.35;;;;;;;8.43;100.00;100584.25;5038072;28;20063;-37
2021/12/29 07:22:35;;;;;;;9.85;2.03;;;;;;;8.42;100.00;100585.38;5049024;28;20048;-36
2021/12/29 07:25:03;;;;;;;13.95;2.42;;;;;;;8.42;100.00;100590.91;5043327;28;20502;-40
2021/12/29 07:27:33;;;;;;;22.48;2.88;;;;;;;8.43;100.00;100602.88;5032421;28;20078;-37
2021/12/29 07:30:00;;;;;;;21.80;3.17;;;;;;;8.42;100.00;100606.78;5037835;28;20434;-40
2021/12/29 07:32:28;;;;;;;15.63;2.50;;;;;;;8.42;100.00;100610.38;5048071;28;20056;-32
2021/12/29 07:34:56;;;;;;;19.85;3.05;;;;;;;8.42;100.00;100604.81;5038959;28;20064;-31
2021/12/29 07:37:23;;;;;;;10.55;2.15;;;;;;;8.41;100.00;100608.72;5033195;28;20056;-36
2021/12/29 07:39:51;;;;;;;15.45;2.60;;;;;;;8.41;100.00;100611.50;5038226;28;20042;-34
2021/12/29 07:42:19;;;;;;;19.33;3.08;;;;;;;8.39;100.00;100624.91;5042861;28;20059;-41
2021/12/29 07:44:53;;;;;;;12.77;2.10;;;;;;;8.39;100.00;100630.47;5024391;28;20049;-34
2021/12/29 07:47:21;;;;;;;20.70;2.70;;;;;;;8.37;100.00;100618.78;5039237;28;20049;-35
2021/12/29 07:49:49;;;;;;;17.73;2.92;;;;;;;8.37;100.00;100618.78;5037396;28;20044;-38
2021/12/29 07:52:16;;;;;;;14.90;2.45;;;;;;;8.35;100.00;100607.13;5038995;28;20055;-39
2021/12/29 07:54:44;;;;;;;10.85;2.35;;;;;;;8.34;100.00;100613.81;5042692;28;20037;-34
2021/12/29 07:57:13;;;;;;;13.75;2.38;;;;;;;8.34;100.00;100618.53;5041678;28;20056;-40
2021/12/29 07:59:41;;;;;;;16.85;2.70;;;;;;;8.33;100.00;100617.72;5033847;28;20052;-33
2021/12/29 08:02:15;;;;;;;12.75;1.95;;;;;;;8.32;100.00;100616.03;5038610;28;20135;-37
2021/12/29 08:04:43;;;;;;;11.38;2.08;;;;;;;8.27;100.00;100607.72;5044949;28;20045;-37
2021/12/29 08:07:11;;;;;;;15.25;2.33;;;;;;;8.25;100.00;100605.22;5038012;28;20585;-35
2021/12/29 08:09:39;;;;;;;15.15;2.45;;;;;;;8.26;100.00;100609.66;5046859;28;20049;-40
2021/12/29 08:12:08;;;;;;;16.10;2.78;;;;;;;8.29;100.00;100603.53;5040847;28;20081;-33
2021/12/29 08:14:36;;;;;;;11.25;1.83;;;;;;;8.30;100.00;100607.97;5030973;28;20572;-34
2021/12/29 08:17:05;;;;;;;9.20;1.88;;;;;;;8.32;100.00;100616.03;5036898;28;20069;-31
2021/12/29 08:19:34;;;;;;;19.10;2.50;;;;;;;8.33;100.00;100605.75;5046991;28;20056;-41
2021/12/29 08:22:02;;;;;;;9.68;1.80;;;;;;;8.31;100.00;100628.25;5043411;28;20049;-30
2021/12/29 08:24:30;;;;;;;9.10;2.30;;;;;;;8.30;100.00;100638.53;5031128;28;20046;-40
2021/12/29 08:26:58;;;;;;;12.15;1.77;;;;;;;8.26;100.00;100626.34;5018732;28;20409;-38
2021/12/29 08:29:25;;;;;;;8.93;1.55;;;;;;;8.25;100.00;100640.53;5046869;28;20059;-38
2021/12/29 08:31:55;;;;;;;12.52;1.63;;;;;;;8.24;100.00;100636.91;5038329;28;20049;-40
2021/12/29 08:34:23;;;;;;;6.50;1.40;;;;;;;8.22;100.00;100633.59;5034523;28;20056;-37
2021/12/29 08:36:52;;;;;;;8.57;1.67;;;;;;;8.23;100.00;100645.53;5035366;28;20041;-38
2021/12/29 08:39:21;;;;;;;9.20;1.50;;;;;;;8.22;100.00;100650.25;5043185;28;20048;-32
2021/12/29 08:41:50;;;;;;;7.57;1.55;;;;;;;8.24;100.00;100656.38;5023097;28;20052;-31
2021/12/29 08:44:18;;;;;;;8.13;1.63;;;;;;;8.24;100.00;100656.38;5038001;28;20367;-38
2021/12/29 08:46:47;;;;;;;10.95;2.13;;;;;;;8.27;100.00;100657.75;5036583;28;20049;-32
2021/12/29 08:49:15;;;;;;;9.80;1.60;;;;;;;8.30;100.00;100654.38;5041094;28;20053;-34
2021/12/29 08:51:44;;;;;;;12.75;1.83;;;;;;;8.32;100.00;100654.97;5043546;28;20160;-35
2021/12/29 08:54:13;;;;;;;12.60;2.45;;;;;;;8.29;100.00;100639.66;5041266;28;20056;-34
2021/12/29 08:56:41;;;;;;;12.35;2.30;;;;;;;8.33;100.00;100639.13;5017630;28;20418;-36
2021/12/29 08:59:10;;;;;;;12.55;2.33;;;;;;;8.34;100.00;100632.44;5039492;28;20049;-34
2021/12/29 09:01:37;;;;;;;13.75;1.90;;;;;;;8.34;100.00;100627.72;5045319;28;20045;-34
2021/12/29 09:04:05;;;;;;;11.82;2.08;;;;;;;8.34;100.00;100627.72;5042287;28;20054;-34
2021/12/29 09:06:34;;;;;;;10.23;2.10;;;;;;;8.33;100.00;100636.34;5033043;28;20155;-35
2021/12/29 09:09:03;;;;;;;14.93;2.35;;;;;;;8.32;100.00;100638.28;5037312;28;20049;-35
2021/12/29 09:11:33;;;;;;;13.48;2.80;;;;;;;8.35;100.00;100642.44;5031049;28;20684;-34
2021/12/29 09:14:00;;;;;;;6.85;2.03;;;;;;;8.34;100.00;100638.00;5037539;28;20177;-38
2021/12/29 09:16:29;;;;;;;10.82;2.13;;;;;;;8.35;100.00;100645.22;5048946;28;20065;-33
2021/12/29 09:18:57;;;;;;;7.70;1.70;;;;;;;8.36;100.00;100627.41;5043973;28;20077;-35
2021/12/29 09:21:27;;;;;;;14.25;2.60;;;;;;;8.37;100.00;100632.69;5031831;28;20132;-36
2021/12/29 09:23:54;;;;;;;12.00;2.20;;;;;;;8.37;100.00;100627.13;5036812;28;20444;-34
2021/12/29 09:26:22;;;;;;;13.60;2.65;;;;;;;8.39;100.00;100624.06;5047466;28;20060;-36
2021/12/29 09:28:51;;;;;;;7.35;2.28;;;;;;;8.40;100.00;100623.75;5037506;28;20072;-35
2021/12/29 09:31:20;;;;;;;17.42;2.88;;;;;;;8.41;100.00;100616.22;5046522;28;20057;-35
2021/12/29 09:33:49;;;;;;;9.85;2.45;;;;;;;8.41;100.00;100611.50;5042160;28;20107;-36
2021/12/29 09:36:17;;;;;;;7.40;2.28;;;;;;;8.44;100.00;100619.28;5035524;28;20053;-36
2021/12/29 09:38:46;;;;;;;9.73;2.30;;;;;;;8.48;100.00;100611.19;5038161;28;20057;-34
2021/12/29 09:41:16;;;;;;;14.00;2.97;;;;;;;8.51;100.00;100624.50;5042916;28;20132;-42
2021/12/29 09:43:46;;;;;;;11.35;2.83;;;;;;;8.52;100.00;100618.66;5041327;28;20485;-34
2021/12/29 09:46:17;;;;;;;9.75;2.17;;;;;;;8.56;100.00;100614.19;5039458;28;20076;-38
2021/12/29 09:48:45;;;;;;;5.35;2.10;;;;;;;8.58;100.00;100598.03;5041396;28;20047;-39
2021/12/29 09:51:14;;;;;;;9.63;2.67;;;;;;;8.61;100.00;100608.53;5042288;28;20048;-39
2021/12/29 09:53:42;;;;;;;8.18;2.42;;;;;;;8.63;100.00;100616.59;5047548;28;20041;-41
2021/12/29 09:56:11;;;;;;;9.68;2.53;;;;;;;8.63;100.00;100608.25;5044755;28;20053;-30
2021/12/29 09:58:40;;;;;;;10.60;2.20;;;;;;;8.61;100.00;100618.84;5037982;28;20080;-32
2021/12/29 10:01:10;;;;;;;11.50;2.58;;;;;;;8.61;100.00;100614.09;5042441;28;20143;-38
2021/12/29 10:03:42;;;;;;;10.32;2.47;;;;;;;8.63;100.00;100605.47;5048859;28;20037;-40
2021/12/29 10:06:11;;;;;;;11.77;2.25;;;;;;;8.61;100.00;100604.94;5042037;28;20051;-31
2021/12/29 10:08:41;;;;;;;14.52;3.40;;;;;;;8.62;100.00;100604.63;5050750;28;20504;-39
2021/12/29 10:11:12;;;;;;;13.38;2.47;;;;;;;8.63;100.00;100609.09;5045059;28;20075;-38
2021/12/29 10:13:42;;;;;;;12.23;3.65;;;;;;;8.65;100.00;100603.22;5035035;28;20128;-35
2021/12/29 10:16:14;;;;;;;16.42;3.85;;;;;;;8.66;100.00;100592.94;5040824;28;20048;-34
2021/12/29 10:18:44;;;;;;;10.60;3.50;;;;;;;8.68;100.00;100594.31;5051764;28;20056;-37
2021/12/29 10:21:14;;;;;;;11.70;2.90;;;;;;;8.69;100.00;100589.56;5045775;28;20057;-37
2021/12/29 10:23:46;;;;;;;9.63;2.80;;;;;;;8.71;100.00;100590.13;5034877;28;20057;-37
2021/12/29 10:26:36;;;;;;;9.80;2.28;;;;;;;8.70;100.00;100582.88;5045282;28;20049;-35
2021/12/29 10:29:07;;;;;;;7.82;2.30;;;;;;;8.74;100.00;100586.75;5034841;28;20571;-35
2021/12/29 10:31:39;;;;;;;8.00;2.80;;;;;;;8.76;100.00;100585.34;5040066;28;20085;-35
2021/12/29 10:34:12;;;;;;;9.82;2.78;;;;;;;8.78;100.00;100579.47;5051614;28;20080;-31
2021/12/29 10:36:43;;;;;;;7.32;2.58;;;;;;;8.81;100.00;100567.72;5046066;28;20051;-36
2021/12/29 10:39:15;;;;;;;8.70;3.00;;;;;;;8.83;100.00;100569.09;5016621;28;20057;-41
2021/12/29 10:41:50;;;;;;;8.10;2.45;;;;;;;8.85;100.00;100566.84;5039740;28;20127;-37
2021/12/29 10:44:25;;;;;;;8.80;2.55;;;;;;;8.87;100.00;100572.13;5034580;28;20518;-32
2021/12/29 10:46:56;;;;;;;6.53;2.17;;;;;;;8.88;100.00;100565.44;5038896;28;20050;-40
2021/12/29 10:49:28;;;;;;;6.03;2.30;;;;;;;8.91;100.00;100560.13;5051390;28;20048;-36
2021/12/29 10:51:57;;;;;;;8.02;2.88;;;;;;;8.93;100.00;100565.41;5045471;28;20497;-38
2021/12/29 10:54:29;;;;;;;8.82;2.88;;;;;;;8.95;100.00;100561.19;5033569;28;20522;-37
2021/12/29 10:57:03;;;;;;;8.63;2.80;;;;;;;9.00;100.00;100568.63;5021610;28;20463;-37
2021/12/29 10:59:35;;;;;;;7.90;2.80;;;;;;;9.02;100.00;100573.91;5048821;28;20055;-37
2021/12/29 11:02:03;;;;;;;7.72;2.90;;;;;;;9.05;100.00;100576.09;5040660;28;20052;-35
2021/12/29 11:04:33;;;;;;;6.32;3.13;;;;;;;9.06;100.00;100564.66;5036563;28;20141;-34
2021/12/29 11:07:01;;;;;;;7.47;2.95;;;;;;;9.07;100.00;100569.13;5022016;28;20063;-39
2021/12/29 11:09:32;;;;;;;10.25;2.90;;;;;;;9.09;100.00;100566.88;5047561;28;20044;-35
2021/12/29 11:12:01;;;;;;;6.20;2.40;;;;;;;9.10;100.00;100579.66;5043653;28;20458;-30
2021/12/29 11:14:32;;;;;;;7.75;2.63;;;;;;;9.11;100.00;100578.53;5037886;28;20052;-33
2021/12/29 11:17:07;;;;;;;10.40;2.92;;;;;;;9.11;100.00;100575.75;5039799;28;20056;-37
2021/12/29 11:19:38;;;;;;;6.30;2.50;;;;;;;9.09;100.00;100578.00;5044065;28;20060;-32
2021/12/29 11:22:12;;;;;;;8.65;3.00;;;;;;;9.05;100.00;100571.38;5044933;28;20056;-38
2021/12/29 11:24:42;;;;;;;7.72;2.72;;;;;;;9.02;100.00;100560.81;5026908;28;20092;-42
2021/12/29 11:27:15;;;;;;;9.00;2.20;;;;;;;9.02;100.00;100573.91;5043396;28;20144;-36
2021/12/29 11:29:52;;;;;;;6.80;2.28;;;;;;;8.99;100.00;100562.22;5040574;28;20495;-39
2021/12/29 11:32:24;;;;;;;8.25;2.88;;;;;;;8.98;100.00;100559.78;5039758;28;20055;-35